createdAt,value
2018-06-28T00:01:29.889Z,101324.47
2018-06-28T00:03:57.932Z,101330.91
2018-06-28T00:06:25.960Z,101330.45
2018-06-28T00:08:54.447Z,101328.05
2018-06-28T00:11:22.545Z,101327.00
2018-06-28T00:13:50.575Z,101326.34
2018-06-28T00:16:18.615Z,101325.09
2018-06-28T00:18:46.661Z,101332.77
2018-06-28T00:21:14.767Z,101326.20
2018-06-28T00:23:42.828Z,101330.14
2018-06-28T00:26:10.976Z,101326.34
2018-06-28T00:28:39.071Z,101326.76
2018-06-28T00:31:07.120Z,101329.97
2018-06-28T00:33:35.424Z,101328.49
2018-06-28T00:36:03.453Z,101326.44
2018-06-28T00:38:31.492Z,101326.73
2018-06-28T00:40:59.529Z,101329.42
2018-06-28T00:43:27.624Z,101330.39
2018-06-28T00:45:55.678Z,101331.77
2018-06-28T00:48:23.764Z,101339.20
2018-06-28T00:50:51.861Z,101343.84
2018-06-28T00:53:19.921Z,101351.40
2018-06-28T00:55:48.004Z,101347.58
2018-06-28T00:58:16.059Z,101344.80
2018-06-28T01:00:44.135Z,101345.75
2018-06-28T01:03:12.223Z,101342.98
2018-06-28T01:05:40.273Z,101342.27
2018-06-28T01:08:08.333Z,101348.41
2018-06-28T01:10:36.436Z,101346.78
2018-06-28T01:13:04.815Z,101343.94
2018-06-28T01:15:32.871Z,101344.66
2018-06-28T01:18:00.976Z,101339.58
2018-06-28T01:20:29.019Z,101343.52
2018-06-28T01:22:57.067Z,101344.90
2018-06-28T01:25:25.128Z,101345.70
2018-06-28T01:27:53.155Z,101339.14
2018-06-28T01:30:21.203Z,101343.07
2018-06-28T01:32:49.274Z,101336.27
2018-06-28T01:35:17.315Z,101336.70
2018-06-28T01:37:45.352Z,101339.34
2018-06-28T01:40:13.408Z,101332.88
2018-06-28T01:43:48.104Z,101335.04
2018-06-28T01:46:17.326Z,101341.92
2018-06-28T01:48:45.446Z,101342.05
2018-06-28T01:51:13.507Z,101331.30
2018-06-28T01:53:41.598Z,101334.78
2018-06-28T01:56:09.616Z,101330.08
2018-06-28T01:58:37.656Z,101331.37
2018-06-28T02:01:05.760Z,101327.92
2018-06-28T02:03:33.826Z,101332.80
2018-06-28T02:06:01.849Z,101333.41
2018-06-28T02:08:30.195Z,101335.40
2018-06-28T02:10:58.232Z,101336.55
2018-06-28T02:13:26.275Z,101336.41
2018-06-28T02:15:54.320Z,101339.63
2018-06-28T02:18:22.369Z,101327.95
2018-06-28T02:20:50.781Z,101333.98
2018-06-28T02:23:18.780Z,101333.38
2018-06-28T02:25:46.816Z,101333.03
2018-06-28T02:28:15.096Z,101326.36
2018-06-28T02:30:43.170Z,101330.91
2018-06-28T02:33:11.248Z,101333.37
2018-06-28T02:35:39.383Z,101331.33
2018-06-28T02:38:07.424Z,101335.66
2018-06-28T02:40:35.526Z,101332.54
2018-06-28T02:43:03.601Z,101332.94
2018-06-28T02:45:31.647Z,101337.30
2018-06-28T02:47:59.728Z,101342.06
2018-06-28T02:50:27.764Z,101344.16
2018-06-28T02:52:55.812Z,101336.55
2018-06-28T02:55:23.840Z,101339.55
2018-06-28T02:57:51.873Z,101328.24
2018-06-28T03:00:19.924Z,101331.22
2018-06-28T03:02:47.992Z,101332.41
2018-06-28T03:05:16.099Z,101325.00
2018-06-28T03:07:44.136Z,101331.61
2018-06-28T03:10:12.168Z,101332.45
2018-06-28T03:12:40.232Z,101346.20
2018-06-28T03:15:08.339Z,101345.14
2018-06-28T03:17:36.388Z,101340.66
2018-06-28T03:20:04.475Z,101340.28
2018-06-28T03:22:32.823Z,101334.66
2018-06-28T03:25:00.862Z,101334.73
2018-06-28T03:27:28.909Z,101340.27
2018-06-28T03:29:57.230Z,101340.52
2018-06-28T03:32:25.259Z,101341.00
2018-06-28T03:34:53.292Z,101338.67
2018-06-28T03:37:21.750Z,101330.27
2018-06-28T03:39:49.776Z,101336.38
2018-06-28T03:42:17.816Z,101328.30
2018-06-28T03:44:45.888Z,101331.76
2018-06-28T03:47:14.011Z,101327.60
2018-06-28T03:49:42.102Z,101331.97
2018-06-28T03:52:10.253Z,101331.89
2018-06-28T03:54:38.328Z,101330.12
2018-06-28T03:57:06.425Z,101338.80
2018-06-28T03:59:34.502Z,101336.11
2018-06-28T04:02:02.561Z,101347.47
2018-06-28T04:04:30.610Z,101342.16
2018-06-28T04:06:58.661Z,101339.14
2018-06-28T04:09:26.734Z,101337.28
2018-06-28T04:11:54.780Z,101346.72
2018-06-28T04:14:22.815Z,101342.98
2018-06-28T04:16:50.864Z,101341.56
2018-06-28T04:19:18.887Z,101344.08
2018-06-28T04:21:46.989Z,101345.34
2018-06-28T04:24:15.137Z,101341.42
2018-06-28T04:26:43.281Z,101343.22
2018-06-28T04:29:11.384Z,101344.66
2018-06-28T04:31:39.833Z,101340.40
2018-06-28T04:34:07.997Z,101336.88
2018-06-28T04:36:36.070Z,101337.30
2018-06-28T04:39:06.499Z,101328.72
2018-06-28T04:41:34.535Z,101328.80
2018-06-28T04:44:02.585Z,101330.62
2018-06-28T04:46:30.664Z,101321.47
2018-06-28T04:48:58.768Z,101318.93
2018-06-28T04:51:26.863Z,101323.34
2018-06-28T04:53:54.936Z,101318.55
2018-06-28T04:56:22.967Z,101317.34
2018-06-28T04:58:51.045Z,101306.86
2018-06-28T05:01:19.139Z,101308.44
2018-06-28T05:03:47.145Z,101306.86
2018-06-28T05:06:15.187Z,101302.94
2018-06-28T05:08:43.233Z,101304.89
2018-06-28T05:11:11.305Z,101306.79
2018-06-28T05:13:39.369Z,101310.69
2018-06-28T05:16:07.421Z,101307.71
2018-06-28T05:18:35.468Z,101307.75
2018-06-28T05:21:03.497Z,101306.00
2018-06-28T05:23:31.560Z,101305.98
2018-06-28T05:25:59.631Z,101308.03
2018-06-28T05:28:27.696Z,101311.69
2018-06-28T05:30:55.755Z,101301.61
2018-06-28T05:33:23.847Z,101298.59
2018-06-28T05:35:51.888Z,101296.31
2018-06-28T05:38:19.944Z,101298.42
2018-06-28T05:40:48.127Z,101302.97
2018-06-28T05:43:16.205Z,101298.83
2018-06-28T05:45:44.631Z,101290.04
2018-06-28T05:48:12.672Z,101292.75
2018-06-28T05:50:40.849Z,101294.58
2018-06-28T05:53:09.272Z,101294.70
2018-06-28T05:55:37.490Z,101295.06
2018-06-28T05:58:05.568Z,101290.80
2018-06-28T06:00:33.655Z,101293.68
2018-06-28T06:03:01.699Z,101297.01
2018-06-28T06:05:29.752Z,101293.08
2018-06-28T06:07:57.832Z,101291.65
2018-06-28T06:10:26.055Z,101296.39
2018-06-28T06:12:54.116Z,101296.66
2018-06-28T06:15:22.168Z,101294.00
2018-06-28T06:17:50.528Z,101292.08
2018-06-28T06:20:18.658Z,101289.34
2018-06-28T06:22:46.799Z,101286.52
2018-06-28T06:25:15.056Z,101296.42
2018-06-28T06:27:43.235Z,101296.39
2018-06-28T06:30:11.595Z,101288.50
2018-06-28T06:32:39.847Z,101292.27
2018-06-28T06:35:08.086Z,101296.55
2018-06-28T06:37:36.228Z,101293.98
2018-06-28T06:40:04.404Z,101289.88
2018-06-28T06:42:32.460Z,101286.46
2018-06-28T06:45:00.571Z,101294.48
2018-06-28T06:47:28.698Z,101291.44
2018-06-28T06:49:56.780Z,101287.69
2018-06-28T06:52:24.804Z,101293.36
2018-06-28T06:54:52.844Z,101291.88
2018-06-28T06:57:20.920Z,101291.50
2018-06-28T06:59:49.040Z,101293.22
2018-06-28T07:02:17.119Z,101297.20
2018-06-28T07:04:45.213Z,101297.93
2018-06-28T07:07:13.309Z,101293.20
2018-06-28T07:09:41.332Z,101292.60
2018-06-28T07:12:09.398Z,101294.86
2018-06-28T07:14:38.340Z,101293.09
2018-06-28T07:17:06.401Z,101290.61
2018-06-28T07:19:34.496Z,101294.65
2018-06-28T07:22:02.555Z,101288.59
2018-06-28T07:24:30.606Z,101284.36
2018-06-28T07:26:58.632Z,101286.78
2018-06-28T07:29:26.676Z,101286.48
2018-06-28T07:31:54.862Z,101280.50
2018-06-28T07:34:22.908Z,101280.63
2018-06-28T07:36:51.014Z,101284.48
2018-06-28T07:39:19.071Z,101287.13
2018-06-28T07:41:47.245Z,101289.08
2018-06-28T07:44:15.618Z,101287.30
2018-06-28T07:46:43.727Z,101279.06
2018-06-28T07:49:11.914Z,101288.22
2018-06-28T07:51:40.078Z,101281.12
2018-06-28T07:54:08.207Z,101275.70
2018-06-28T07:56:36.348Z,101282.39
2018-06-28T07:59:04.425Z,101274.35
2018-06-28T08:01:32.504Z,101276.41
2018-06-28T08:04:00.603Z,101279.58
2018-06-28T08:06:28.637Z,101263.72
2018-06-28T08:08:56.687Z,101267.64
2018-06-28T08:11:24.716Z,101272.43
2018-06-28T08:13:52.767Z,101257.59
2018-06-28T08:16:20.798Z,101266.12
2018-06-28T08:18:48.848Z,101263.59
2018-06-28T08:21:16.935Z,101266.75
2018-06-28T08:23:45.017Z,101259.06
2018-06-28T08:26:13.123Z,101265.20
2018-06-28T08:28:41.404Z,101274.89
2018-06-28T08:31:09.432Z,101271.41
2018-06-28T08:33:37.496Z,101260.93
2018-06-28T08:36:05.587Z,101266.59
2018-06-28T08:38:33.617Z,101262.06
2018-06-28T08:41:01.668Z,101262.79
2018-06-28T08:43:29.938Z,101266.55
2018-06-28T08:45:58.237Z,101262.31
2018-06-28T08:48:26.269Z,101256.69
2018-06-28T08:50:54.316Z,101261.97
2018-06-28T08:53:22.377Z,101259.09
2018-06-28T08:55:51.492Z,101253.81
2018-06-28T08:58:19.776Z,101251.78
2018-06-28T09:00:47.708Z,101254.20
2018-06-28T09:03:15.864Z,101249.70
2018-06-28T09:05:44.055Z,101261.70
2018-06-28T09:08:12.183Z,101259.76
2018-06-28T09:10:40.412Z,101252.55
2018-06-28T09:13:08.602Z,101253.16
2018-06-28T09:15:36.883Z,101249.70
2018-06-28T09:18:05.065Z,101257.83
2018-06-28T09:20:33.115Z,101259.04
2018-06-28T09:23:01.187Z,101256.70
2018-06-28T09:25:29.226Z,101244.76
2018-06-28T09:27:57.252Z,101249.49
2018-06-28T09:30:25.311Z,101244.38
2018-06-28T09:32:53.364Z,101245.28
2018-06-28T09:35:21.427Z,101234.99
2018-06-28T09:37:49.524Z,101239.16
2018-06-28T09:40:17.628Z,101237.37
2018-06-28T09:42:45.740Z,101231.59
2018-06-28T09:45:13.772Z,101229.84
2018-06-28T09:47:41.892Z,101231.11
2018-06-28T09:50:09.935Z,101231.59
2018-06-28T09:52:38.016Z,101235.91
2018-06-28T09:55:06.597Z,101228.44
2018-06-28T09:57:34.656Z,101226.56
2018-06-28T10:00:02.711Z,101225.77
2018-06-28T10:02:30.792Z,101228.69
2018-06-28T10:04:59.135Z,101210.33
2018-06-28T10:07:27.135Z,101217.98
2018-06-28T10:09:55.166Z,101213.86
2018-06-28T10:12:23.229Z,101212.56
2018-06-28T10:14:51.346Z,101210.01
2018-06-28T10:17:19.291Z,101209.02
2018-06-28T10:19:47.362Z,101214.89
2018-06-28T10:22:15.520Z,101213.39
2018-06-28T10:24:43.648Z,101205.00
2018-06-28T10:27:11.614Z,101207.66
2018-06-28T10:29:39.652Z,101205.26
2018-06-28T10:32:08.012Z,101201.09
2018-06-28T10:34:36.083Z,101201.50
2018-06-28T10:37:04.127Z,101202.16
2018-06-28T10:39:32.287Z,101193.72
2018-06-28T10:42:00.311Z,101190.19
2018-06-28T10:44:28.380Z,101188.00
2018-06-28T10:46:56.500Z,101184.38
2018-06-28T10:49:24.552Z,101180.92
2018-06-28T10:51:52.684Z,101178.45
2018-06-28T10:54:20.716Z,101175.55
2018-06-28T10:56:48.807Z,101177.03
2018-06-28T10:59:16.915Z,101178.72
2018-06-28T11:01:45.663Z,101177.56
2018-06-28T11:04:13.772Z,101174.39
2018-06-28T11:06:42.011Z,101151.80
2018-06-28T11:09:11.074Z,101167.59
2018-06-28T11:11:40.314Z,101161.23
2018-06-28T11:14:08.548Z,101157.95
2018-06-28T11:16:36.641Z,101153.73
2018-06-28T11:19:04.880Z,101150.64
2018-06-28T11:21:33.157Z,101152.30
2018-06-28T11:24:01.199Z,101153.34
2018-06-28T11:26:29.232Z,101134.08
2018-06-28T11:28:57.299Z,101147.53
2018-06-28T11:31:25.319Z,101139.22
2018-06-28T11:33:53.339Z,101137.34
2018-06-28T11:36:21.432Z,101137.35
2018-06-28T11:38:49.964Z,101131.45
2018-06-28T11:41:18.142Z,101125.36
2018-06-28T11:43:46.348Z,101123.61
2018-06-28T11:46:14.453Z,101127.86
2018-06-28T11:48:42.599Z,101124.28
2018-06-28T11:51:10.791Z,101130.59
2018-06-28T11:53:38.910Z,101116.35
2018-06-28T11:56:06.988Z,101116.88
2018-06-28T11:58:35.283Z,101119.27
2018-06-28T12:01:03.330Z,101107.52
2018-06-28T12:03:31.357Z,101107.30
2018-06-28T12:05:59.404Z,101105.08
2018-06-28T12:08:27.595Z,101106.73
2018-06-28T12:10:55.647Z,101094.09
2018-06-28T12:13:23.761Z,101096.21
2018-06-28T12:15:51.803Z,101097.69
2018-06-28T12:18:19.914Z,101088.09
2018-06-28T12:20:47.939Z,101097.20
2018-06-28T12:23:15.992Z,101083.73
2018-06-28T12:25:44.018Z,101088.30
2018-06-28T12:28:12.056Z,101076.09
2018-06-28T12:30:40.072Z,101079.05
2018-06-28T12:33:08.093Z,101073.82
2018-06-28T12:35:36.415Z,101071.50
2018-06-28T12:38:04.511Z,101062.73
2018-06-28T12:40:32.571Z,101068.91
2018-06-28T12:43:00.643Z,101063.98
2018-06-28T12:45:28.651Z,101061.95
2018-06-28T12:48:05.851Z,101051.02
2018-06-28T12:50:33.913Z,101060.65
2018-06-28T12:53:02.960Z,101041.02
2018-06-28T12:55:41.643Z,101053.26
2018-06-28T12:58:09.845Z,101043.05
2018-06-28T13:00:37.913Z,101042.17
2018-06-28T13:03:05.887Z,101038.22
2018-06-28T13:05:33.927Z,101027.16
2018-06-28T13:08:01.956Z,101023.09
2018-06-28T13:10:30.004Z,101032.69
2018-06-28T13:12:58.035Z,101030.08
2018-06-28T13:15:26.051Z,101033.13
2018-06-28T13:17:54.293Z,101024.61
2018-06-28T13:20:22.381Z,101030.20
2018-06-28T13:22:50.382Z,101017.77
2018-06-28T13:25:18.661Z,101017.48
2018-06-28T13:27:46.720Z,101012.27
2018-06-28T13:30:14.840Z,101013.78
2018-06-28T13:32:42.980Z,101013.08
2018-06-28T13:35:11.113Z,100998.81
2018-06-28T13:37:39.304Z,101001.64
2018-06-28T13:40:07.400Z,101003.55
2018-06-28T13:42:35.471Z,100987.62
2018-06-28T13:45:03.511Z,100986.66
2018-06-28T13:47:31.559Z,100985.52
2018-06-28T13:49:59.592Z,100992.20
2018-06-28T13:52:27.606Z,100988.72
2018-06-28T13:54:55.717Z,100984.91
2018-06-28T13:57:23.803Z,100984.06
2018-06-28T13:59:51.900Z,100981.05
2018-06-28T14:02:19.983Z,100976.97
2018-06-28T14:04:48.065Z,100973.33
2018-06-28T14:07:16.108Z,100972.37
2018-06-28T14:09:44.259Z,100968.95
2018-06-28T14:12:12.418Z,100960.66
2018-06-28T14:14:40.597Z,100961.50
2018-06-28T14:17:08.732Z,100962.91
2018-06-28T14:19:36.826Z,100964.11
2018-06-28T14:22:04.915Z,100965.83
2018-06-28T14:24:32.909Z,100960.34
2018-06-28T14:27:01.939Z,100951.36
2018-06-28T14:29:29.982Z,100948.73
2018-06-28T14:31:58.050Z,100934.59
2018-06-28T14:34:26.332Z,100941.81
2018-06-28T14:36:54.390Z,100940.12
2018-06-28T14:39:22.455Z,100932.30
2018-06-28T14:41:50.656Z,100925.42
2018-06-28T14:44:18.983Z,100933.72
2018-06-28T14:46:47.339Z,100937.48
2018-06-28T14:49:15.756Z,100936.98
2018-06-28T14:51:43.895Z,100939.08
2018-06-28T14:54:12.344Z,100929.89
2018-06-28T14:56:40.716Z,100931.41
2018-06-28T14:59:09.716Z,100924.64
2018-06-28T15:01:37.832Z,100919.80
2018-06-28T15:04:06.064Z,100921.54
2018-06-28T15:06:34.076Z,100911.34
2018-06-28T15:09:02.185Z,100907.64
2018-06-28T15:11:30.223Z,100909.73
2018-06-28T15:13:58.283Z,100903.38
2018-06-28T15:16:26.341Z,100904.36
2018-06-28T15:18:54.472Z,100899.43
2018-06-28T15:21:22.556Z,100899.55
2018-06-28T15:23:50.632Z,100895.38
2018-06-28T15:26:18.770Z,100885.08
2018-06-28T15:28:46.991Z,100880.38
2018-06-28T15:31:17.939Z,100886.25
2018-06-28T15:33:46.524Z,100888.78
2018-06-28T15:36:15.083Z,100888.28
2018-06-28T15:38:43.421Z,100883.53
2018-06-28T15:41:11.792Z,100880.13
2018-06-28T15:43:40.404Z,100885.13
2018-06-28T15:46:09.155Z,100884.45
2018-06-28T15:48:37.531Z,100890.25
2018-06-28T15:51:05.588Z,100879.28
2018-06-28T15:53:33.616Z,100873.79
2018-06-28T15:56:01.684Z,100876.02
2018-06-28T15:58:29.759Z,100876.80
2018-06-28T16:00:57.827Z,100877.29
2018-06-28T16:03:25.886Z,100861.78
2018-06-28T16:05:53.939Z,100877.55
2018-06-28T16:08:21.983Z,100872.05
2018-06-28T16:10:50.196Z,100865.36
2018-06-28T16:13:18.735Z,100869.09
2018-06-28T16:15:47.043Z,100870.51
2018-06-28T16:18:15.314Z,100865.23
2018-06-28T16:20:43.863Z,100861.22
2018-06-28T16:23:12.368Z,100866.38
2018-06-28T16:25:40.566Z,100856.80
2018-06-28T16:28:09.475Z,100856.31
2018-06-28T16:30:37.574Z,100850.96
2018-06-28T16:33:05.619Z,100863.30
2018-06-28T16:35:33.640Z,100850.05
2018-06-28T16:38:01.762Z,100843.33
2018-06-28T16:40:29.791Z,100855.22
2018-06-28T16:42:57.827Z,100849.22
2018-06-28T16:45:25.939Z,100844.30
2018-06-28T16:47:53.999Z,100842.30
2018-06-28T16:50:22.044Z,100848.82
2018-06-28T16:52:50.131Z,100837.95
2018-06-28T16:55:18.424Z,100836.12
2018-06-28T16:57:46.820Z,100829.84
2018-06-28T17:00:14.995Z,100822.94
2018-06-28T17:02:43.581Z,100828.31
2018-06-28T17:05:12.292Z,100830.20
2018-06-28T17:07:41.016Z,100829.59
2018-06-28T17:10:09.479Z,100828.73
2018-06-28T17:12:37.527Z,100831.73
2018-06-28T17:15:05.892Z,100828.67
2018-06-28T17:17:34.305Z,100825.09
2018-06-28T17:20:02.407Z,100828.81
2018-06-28T17:22:30.988Z,100824.18
2018-06-28T17:24:59.043Z,100831.65
2018-06-28T17:27:27.104Z,100833.59
2018-06-28T17:29:55.181Z,100831.06
2018-06-28T17:32:23.528Z,100825.02
2018-06-28T17:34:51.796Z,100834.48
2018-06-28T17:37:20.051Z,100831.53
2018-06-28T17:39:48.388Z,100829.11
2018-06-28T17:42:16.431Z,100825.27
2018-06-28T17:44:44.640Z,100828.92
2018-06-28T17:47:12.892Z,100825.19
2018-06-28T17:49:41.097Z,100827.80
2018-06-28T17:52:09.280Z,100820.80
2018-06-28T17:54:37.396Z,100824.28
2018-06-28T17:57:05.764Z,100828.12
2018-06-28T17:59:34.028Z,100828.81
2018-06-28T18:02:02.103Z,100822.29
2018-06-28T18:04:30.283Z,100822.80
2018-06-28T18:06:58.323Z,100819.46
2018-06-28T18:09:26.738Z,100821.00
2018-06-28T18:11:54.785Z,100828.12
2018-06-28T18:14:22.825Z,100825.39
2018-06-28T18:16:50.964Z,100818.85
2018-06-28T18:19:19.215Z,100819.00
2018-06-28T18:21:47.325Z,100831.34
2018-06-28T18:24:15.372Z,100817.75
2018-06-28T18:26:43.707Z,100819.55
2018-06-28T18:29:11.751Z,100813.37
2018-06-28T18:31:39.911Z,100819.78
2018-06-28T18:34:07.970Z,100816.79
2018-06-28T18:36:35.990Z,100816.47
2018-06-28T18:39:06.448Z,100819.39
2018-06-28T18:41:34.508Z,100816.70
2018-06-28T18:44:02.560Z,100817.78
2018-06-28T18:46:30.596Z,100817.97
2018-06-28T18:48:58.863Z,100818.98
2018-06-28T18:51:28.062Z,100814.48
2018-06-28T18:53:56.129Z,100822.55
2018-06-28T18:56:24.662Z,100818.80
2018-06-28T18:58:53.037Z,100826.50
2018-06-28T19:01:21.169Z,100835.86
2018-06-28T19:03:49.261Z,100833.39
2018-06-28T19:06:17.399Z,100833.94
2018-06-28T19:08:45.803Z,100829.91
2018-06-28T19:11:13.843Z,100831.16
2018-06-28T19:13:47.215Z,100827.42
2018-06-28T19:16:21.452Z,100833.00
2018-06-28T19:18:50.131Z,100831.57
2018-06-28T19:21:23.417Z,100833.22
2018-06-28T19:23:52.339Z,100833.45
2018-06-28T19:26:20.675Z,100837.79
2018-06-28T19:28:49.853Z,100845.06
2018-06-28T19:32:21.027Z,100843.19
2018-06-28T19:34:49.060Z,100848.12
2018-06-28T19:37:22.444Z,100847.66
2018-06-28T19:39:55.964Z,100843.52
2018-06-28T19:42:29.605Z,100844.64
2018-06-28T19:44:58.067Z,100846.38
2018-06-28T19:47:26.350Z,100851.18
2018-06-28T19:50:58.963Z,100851.05
2018-06-28T19:53:27.115Z,100852.70
2018-06-28T19:55:55.536Z,100851.97
2018-06-28T19:58:24.051Z,100862.25
2018-06-28T20:00:58.880Z,100861.70
2018-06-28T20:03:32.281Z,100863.22
2018-06-28T20:06:00.343Z,100867.55
2018-06-28T20:08:28.732Z,100864.83
2018-06-28T20:10:57.032Z,100871.60
2018-06-28T20:13:30.656Z,100879.95
2018-06-28T20:16:04.311Z,100876.97
2018-06-28T20:18:38.143Z,100877.36
2018-06-28T20:21:07.267Z,100874.30
2018-06-28T20:23:35.698Z,100871.70
2018-06-28T20:26:09.177Z,100869.33
2018-06-28T20:28:42.629Z,100887.68
2018-06-28T20:31:16.262Z,100881.78
2018-06-28T20:33:50.155Z,100889.75
2018-06-28T20:36:18.181Z,100892.93
2018-06-28T20:38:46.368Z,100891.88
2018-06-28T20:41:14.688Z,100897.67
2018-06-28T20:43:43.228Z,100894.63
2018-06-28T20:46:11.663Z,100899.64
2018-06-28T20:48:40.169Z,100905.13
2018-06-28T20:51:08.463Z,100906.42
2018-06-28T20:53:37.352Z,100910.12
2018-06-28T20:56:05.836Z,100904.20
2018-06-28T20:58:36.236Z,100904.41
2018-06-28T21:01:04.522Z,100919.02
2018-06-28T21:03:32.593Z,100914.45
2018-06-28T21:06:00.645Z,100917.03
2018-06-28T21:08:28.828Z,100907.92
2018-06-28T21:10:56.928Z,100922.68
2018-06-28T21:13:24.967Z,100925.09
2018-06-28T21:15:53.016Z,100916.88
2018-06-28T21:18:21.047Z,100926.29
2018-06-28T21:20:49.096Z,100922.53
2018-06-28T21:23:17.165Z,100929.98
2018-06-28T21:25:45.179Z,100918.96
2018-06-28T21:28:13.219Z,100925.61
2018-06-28T21:30:41.252Z,100925.85
2018-06-28T21:33:09.324Z,100925.71
2018-06-28T21:35:37.361Z,100929.33
2018-06-28T21:38:05.400Z,100924.38
2018-06-28T21:40:33.486Z,100932.21
2018-06-28T21:43:01.504Z,100919.99
2018-06-28T21:45:29.531Z,100924.25
2018-06-28T21:47:57.540Z,100927.87
2018-06-28T21:50:25.586Z,100930.89
2018-06-28T21:52:53.619Z,100933.72
2018-06-28T21:55:21.834Z,100931.91
2018-06-28T21:57:49.765Z,100933.33
2018-06-28T22:00:34.461Z,100929.33
2018-06-28T22:03:04.825Z,100935.95
2018-06-28T22:05:33.469Z,100932.56
2018-06-28T22:08:02.210Z,100928.97
2018-06-28T22:10:30.124Z,100933.17
2018-06-28T22:12:58.419Z,100931.98
2018-06-28T22:15:29.502Z,100928.59
2018-06-28T22:18:00.627Z,100921.82
2018-06-28T22:20:29.772Z,100924.45
2018-06-28T22:22:57.813Z,100918.26
2018-06-28T22:25:27.091Z,100911.27
2018-06-28T22:27:55.199Z,100919.28
2018-06-28T22:30:24.050Z,100925.86
2018-06-28T22:32:52.080Z,100919.49
2018-06-28T22:35:20.135Z,100930.09
2018-06-28T22:37:48.619Z,100931.50
2018-06-28T22:40:16.920Z,100938.31
2018-06-28T22:42:45.082Z,100930.12
2018-06-28T22:45:13.251Z,100931.52
2018-06-28T22:47:41.443Z,100929.31
2018-06-28T22:50:09.780Z,100923.50
2018-06-28T22:52:37.998Z,100928.32
2018-06-28T22:55:06.267Z,100935.09
2018-06-28T22:57:34.456Z,100933.30
2018-06-28T23:00:02.562Z,100933.31
2018-06-28T23:02:30.587Z,100937.90
2018-06-28T23:04:58.615Z,100934.09
2018-06-28T23:07:26.762Z,100937.87
2018-06-28T23:09:54.695Z,100937.27
2018-06-28T23:12:23.014Z,100936.84
2018-06-28T23:14:51.074Z,100927.06
2018-06-28T23:17:19.246Z,100929.86
2018-06-28T23:19:47.361Z,100931.85
2018-06-28T23:22:50.929Z,100934.63
2018-06-28T23:25:19.100Z,100937.77
2018-06-28T23:27:48.152Z,100931.20
2018-06-28T23:30:16.784Z,100936.17
2018-06-28T23:32:45.025Z,100945.53
2018-06-28T23:35:13.229Z,100938.15
2018-06-28T23:37:41.636Z,100941.52
2018-06-28T23:40:09.961Z,100934.12
2018-06-28T23:42:38.995Z,100930.93
2018-06-28T23:45:07.854Z,100932.72
2018-06-28T23:47:36.229Z,100931.30
2018-06-28T23:50:04.798Z,100926.10
2018-06-28T23:52:32.962Z,100925.66
2018-06-28T23:55:00.997Z,100927.66
2018-06-28T23:57:29.074Z,100927.04
2018-06-28T23:59:57.114Z,100931.20
